sensor_id;sensor_type;location;lat;lon;timestamp;P1;durP1;ratioP1;P2;durP2;ratioP2
52586;SDS011;38480;52.724;6.436;2023-04-01T00:02:21;14.80;;;8.27;;
52586;SDS011;38480;52.724;6.436;2023-04-01T00:04:47;16.60;;;9.27;;
52586;SDS011;38480;52.724;6.436;2023-04-01T00:07:13;18.73;;;9.80;;
52586;SDS011;38480;52.724;6.436;2023-04-01T00:09:39;15.07;;;8.20;;
52586;SDS011;38480;52.724;6.436;2023-04-01T00:12:05;18.50;;;8.13;;
52586;SDS011;38480;52.724;6.436;2023-04-01T00:14:31;19.07;;;9.47;;
52586;SDS011;38480;52.724;6.436;2023-04-01T00:16:57;14.53;;;8.67;;
52586;SDS011;38480;52.724;6.436;2023-04-01T00:19:23;19.17;;;9.60;;
52586;SDS011;38480;52.724;6.436;2023-04-01T00:21:49;14.57;;;8.03;;
52586;SDS011;38480;52.724;6.436;2023-04-01T00:24:17;15.43;;;9.13;;
52586;SDS011;38480;52.724;6.436;2023-04-01T00:26:44;17.77;;;8.30;;
52586;SDS011;38480;52.724;6.436;2023-04-01T00:29:10;22.77;;;8.63;;
52586;SDS011;38480;52.724;6.436;2023-04-01T00:31:36;13.87;;;7.93;;
52586;SDS011;38480;52.724;6.436;2023-04-01T00:34:02;15.27;;;8.50;;
52586;SDS011;38480;52.724;6.436;2023-04-01T00:36:29;14.93;;;8.50;;
52586;SDS011;38480;52.724;6.436;2023-04-01T00:38:55;21.97;;;9.67;;
52586;SDS011;38480;52.724;6.436;2023-04-01T00:41:21;23.10;;;9.33;;
52586;SDS011;38480;52.724;6.436;2023-04-01T00:43:48;25.33;;;9.27;;
52586;SDS011;38480;52.724;6.436;2023-04-01T00:46:14;16.90;;;8.37;;
52586;SDS011;38480;52.724;6.436;2023-04-01T00:48:46;18.27;;;8.40;;
52586;SDS011;38480;52.724;6.436;2023-04-01T00:51:25;15.35;;;7.95;;
52586;SDS011;38480;52.724;6.436;2023-04-01T00:53:53;14.07;;;7.77;;
52586;SDS011;38480;52.724;6.436;2023-04-01T00:56:21;18.53;;;8.07;;
52586;SDS011;38480;52.724;6.436;2023-04-01T00:58:51;17.30;;;8.07;;
52586;SDS011;38480;52.724;6.436;2023-04-01T01:01:21;22.57;;;9.60;;
52586;SDS011;38480;52.724;6.436;2023-04-01T01:03:48;19.33;;;8.30;;
52586;SDS011;38480;52.724;6.436;2023-04-01T01:06:17;22.53;;;8.57;;
52586;SDS011;38480;52.724;6.436;2023-04-01T01:11:14;21.03;;;9.37;;
52586;SDS011;38480;52.724;6.436;2023-04-01T01:13:44;21.00;;;9.33;;
52586;SDS011;38480;52.724;6.436;2023-04-01T01:16:14;14.07;;;8.17;;
52586;SDS011;38480;52.724;6.436;2023-04-01T01:26:42;23.40;;;9.90;;
52586;SDS011;38480;52.724;6.436;2023-04-01T01:37:02;25.93;;;10.03;;
52586;SDS011;38480;52.724;6.436;2023-04-01T01:39:31;20.37;;;9.03;;
52586;SDS011;38480;52.724;6.436;2023-04-01T01:42:01;24.77;;;9.93;;
52586;SDS011;38480;52.724;6.436;2023-04-01T01:44:28;22.93;;;10.27;;
52586;SDS011;38480;52.724;6.436;2023-04-01T01:46:55;28.33;;;11.30;;
52586;SDS011;38480;52.724;6.436;2023-04-01T01:49:22;25.40;;;10.53;;
52586;SDS011;38480;52.724;6.436;2023-04-01T01:51:49;26.67;;;11.33;;
52586;SDS011;38480;52.724;6.436;2023-04-01T01:54:18;19.37;;;9.33;;
52586;SDS011;38480;52.724;6.436;2023-04-01T01:56:46;29.20;;;10.33;;
52586;SDS011;38480;52.724;6.436;2023-04-01T01:59:14;22.70;;;9.87;;
52586;SDS011;38480;52.724;6.436;2023-04-01T02:01:42;23.33;;;10.43;;
52586;SDS011;38480;52.724;6.436;2023-04-01T02:04:10;20.73;;;8.60;;
52586;SDS011;38480;52.724;6.436;2023-04-01T02:06:37;23.40;;;9.50;;
52586;SDS011;38480;52.724;6.436;2023-04-01T02:09:04;22.27;;;10.13;;
52586;SDS011;38480;52.724;6.436;2023-04-01T02:16:52;31.20;;;11.20;;
52586;SDS011;38480;52.724;6.436;2023-04-01T02:19:19;32.53;;;11.63;;
52586;SDS011;38480;52.724;6.436;2023-04-01T02:21:50;26.60;;;10.77;;
52586;SDS011;38480;52.724;6.436;2023-04-01T02:24:18;32.40;;;11.07;;
52586;SDS011;38480;52.724;6.436;2023-04-01T02:26:47;30.47;;;10.70;;
52586;SDS011;38480;52.724;6.436;2023-04-01T02:29:14;23.97;;;10.17;;
52586;SDS011;38480;52.724;6.436;2023-04-01T02:31:41;33.03;;;11.70;;
52586;SDS011;38480;52.724;6.436;2023-04-01T02:34:08;32.50;;;11.77;;
52586;SDS011;38480;52.724;6.436;2023-04-01T02:36:34;25.33;;;10.50;;
52586;SDS011;38480;52.724;6.436;2023-04-01T02:39:01;26.67;;;10.77;;
52586;SDS011;38480;52.724;6.436;2023-04-01T02:41:29;35.07;;;11.63;;
52586;SDS011;38480;52.724;6.436;2023-04-01T02:43:56;28.37;;;10.83;;
52586;SDS011;38480;52.724;6.436;2023-04-01T02:46:23;25.73;;;9.17;;
52586;SDS011;38480;52.724;6.436;2023-04-01T02:48:49;28.63;;;10.93;;
52586;SDS011;38480;52.724;6.436;2023-04-01T02:51:15;29.70;;;10.73;;
52586;SDS011;38480;52.724;6.436;2023-04-01T02:53:41;29.47;;;10.60;;
52586;SDS011;38480;52.724;6.436;2023-04-01T02:56:07;23.53;;;9.80;;
52586;SDS011;38480;52.724;6.436;2023-04-01T02:58:34;22.33;;;10.07;;
52586;SDS011;38480;52.724;6.436;2023-04-01T03:01:00;42.63;;;13.07;;
52586;SDS011;38480;52.724;6.436;2023-04-01T03:03:26;25.53;;;9.87;;
52586;SDS011;38480;52.724;6.436;2023-04-01T03:05:52;27.63;;;10.17;;
52586;SDS011;38480;52.724;6.436;2023-04-01T03:08:21;30.27;;;11.50;;
52586;SDS011;38480;52.724;6.436;2023-04-01T03:10:47;26.30;;;10.67;;
52586;SDS011;38480;52.724;6.436;2023-04-01T03:13:13;30.40;;;11.87;;
52586;SDS011;38480;52.724;6.436;2023-04-01T03:15:39;40.73;;;13.03;;
52586;SDS011;38480;52.724;6.436;2023-04-01T03:18:05;30.33;;;10.87;;
52586;SDS011;38480;52.724;6.436;2023-04-01T03:20:31;31.30;;;11.43;;
52586;SDS011;38480;52.724;6.436;2023-04-01T03:22:57;39.17;;;12.83;;
52586;SDS011;38480;52.724;6.436;2023-04-01T03:25:24;54.17;;;13.90;;
52586;SDS011;38480;52.724;6.436;2023-04-01T03:27:50;41.83;;;13.20;;
52586;SDS011;38480;52.724;6.436;2023-04-01T03:30:16;34.97;;;11.63;;
52586;SDS011;38480;52.724;6.436;2023-04-01T03:32:42;33.83;;;12.47;;
52586;SDS011;38480;52.724;6.436;2023-04-01T03:35:08;33.07;;;11.43;;
52586;SDS011;38480;52.724;6.436;2023-04-01T03:37:35;32.57;;;11.67;;
52586;SDS011;38480;52.724;6.436;2023-04-01T03:40:01;30.97;;;11.23;;
52586;SDS011;38480;52.724;6.436;2023-04-01T03:42:27;31.50;;;10.97;;
52586;SDS011;38480;52.724;6.436;2023-04-01T03:44:53;43.57;;;13.00;;
52586;SDS011;38480;52.724;6.436;2023-04-01T03:47:19;44.47;;;12.20;;
52586;SDS011;38480;52.724;6.436;2023-04-01T03:49:45;34.60;;;10.80;;
52586;SDS011;38480;52.724;6.436;2023-04-01T03:52:11;32.47;;;10.57;;
52586;SDS011;38480;52.724;6.436;2023-04-01T03:54:38;34.43;;;11.03;;
52586;SDS011;38480;52.724;6.436;2023-04-01T03:57:04;29.93;;;10.40;;
52586;SDS011;38480;52.724;6.436;2023-04-01T03:59:30;36.03;;;11.80;;
52586;SDS011;38480;52.724;6.436;2023-04-01T04:01:56;42.03;;;13.00;;
52586;SDS011;38480;52.724;6.436;2023-04-01T04:04:22;36.00;;;11.50;;
52586;SDS011;38480;52.724;6.436;2023-04-01T04:06:49;41.80;;;11.60;;
52586;SDS011;38480;52.724;6.436;2023-04-01T04:09:16;39.30;;;11.40;;
52586;SDS011;38480;52.724;6.436;2023-04-01T04:11:42;43.40;;;11.53;;
52586;SDS011;38480;52.724;6.436;2023-04-01T04:14:08;38.33;;;11.27;;
52586;SDS011;38480;52.724;6.436;2023-04-01T04:16:34;47.00;;;12.23;;
52586;SDS011;38480;52.724;6.436;2023-04-01T04:19:01;52.97;;;12.53;;
52586;SDS011;38480;52.724;6.436;2023-04-01T04:21:28;63.43;;;13.83;;
52586;SDS011;38480;52.724;6.436;2023-04-01T04:23:54;52.67;;;12.47;;
52586;SDS011;38480;52.724;6.436;2023-04-01T04:26:20;41.77;;;11.40;;
52586;SDS011;38480;52.724;6.436;2023-04-01T04:28:46;63.93;;;13.63;;
52586;SDS011;38480;52.724;6.436;2023-04-01T04:31:17;52.47;;;12.77;;
52586;SDS011;38480;52.724;6.436;2023-04-01T04:33:44;47.83;;;12.20;;
52586;SDS011;38480;52.724;6.436;2023-04-01T04:36:10;43.57;;;12.43;;
52586;SDS011;38480;52.724;6.436;2023-04-01T04:38:36;46.40;;;11.43;;
52586;SDS011;38480;52.724;6.436;2023-04-01T04:41:02;53.73;;;12.77;;
52586;SDS011;38480;52.724;6.436;2023-04-01T04:43:28;38.87;;;11.43;;
52586;SDS011;38480;52.724;6.436;2023-04-01T04:45:54;84.43;;;15.10;;
52586;SDS011;38480;52.724;6.436;2023-04-01T04:48:21;67.03;;;13.03;;
52586;SDS011;38480;52.724;6.436;2023-04-01T04:50:47;42.03;;;11.10;;
52586;SDS011;38480;52.724;6.436;2023-04-01T04:53:14;44.63;;;10.83;;
52586;SDS011;38480;52.724;6.436;2023-04-01T04:55:47;55.83;;;11.83;;
52586;SDS011;38480;52.724;6.436;2023-04-01T04:58:14;54.70;;;11.70;;
52586;SDS011;38480;52.724;6.436;2023-04-01T05:00:40;80.03;;;13.83;;
52586;SDS011;38480;52.724;6.436;2023-04-01T05:03:07;79.00;;;13.97;;
52586;SDS011;38480;52.724;6.436;2023-04-01T05:05:35;81.10;;;13.40;;
52586;SDS011;38480;52.724;6.436;2023-04-01T05:08:01;83.90;;;14.53;;
52586;SDS011;38480;52.724;6.436;2023-04-01T05:10:27;64.97;;;12.73;;
52586;SDS011;38480;52.724;6.436;2023-04-01T05:12:53;85.23;;;14.33;;
52586;SDS011;38480;52.724;6.436;2023-04-01T05:15:19;103.97;;;16.17;;
52586;SDS011;38480;52.724;6.436;2023-04-01T05:17:45;96.40;;;14.10;;
52586;SDS011;38480;52.724;6.436;2023-04-01T05:20:12;71.83;;;12.93;;
52586;SDS011;38480;52.724;6.436;2023-04-01T05:22:39;80.60;;;12.47;;
52586;SDS011;38480;52.724;6.436;2023-04-01T05:25:05;81.83;;;13.30;;
52586;SDS011;38480;52.724;6.436;2023-04-01T05:27:31;63.30;;;11.63;;
52586;SDS011;38480;52.724;6.436;2023-04-01T05:29:57;87.93;;;12.80;;
52586;SDS011;38480;52.724;6.436;2023-04-01T05:32:23;37.43;;;8.70;;
52586;SDS011;38480;52.724;6.436;2023-04-01T05:34:50;89.53;;;11.67;;
52586;SDS011;38480;52.724;6.436;2023-04-01T05:37:16;84.33;;;13.43;;
52586;SDS011;38480;52.724;6.436;2023-04-01T05:39:42;73.70;;;13.83;;
52586;SDS011;38480;52.724;6.436;2023-04-01T05:42:08;126.97;;;18.87;;
52586;SDS011;38480;52.724;6.436;2023-04-01T05:44:35;83.00;;;16.13;;
52586;SDS011;38480;52.724;6.436;2023-04-01T05:47:01;109.80;;;18.20;;
52586;SDS011;38480;52.724;6.436;2023-04-01T05:49:28;105.13;;;16.97;;
52586;SDS011;38480;52.724;6.436;2023-04-01T05:51:54;45.77;;;12.10;;
52586;SDS011;38480;52.724;6.436;2023-04-01T05:54:20;61.47;;;13.17;;
52586;SDS011;38480;52.724;6.436;2023-04-01T05:56:46;49.23;;;11.13;;
52586;SDS011;38480;52.724;6.436;2023-04-01T05:59:12;64.63;;;12.87;;
52586;SDS011;38480;52.724;6.436;2023-04-01T06:01:39;73.13;;;13.43;;
52586;SDS011;38480;52.724;6.436;2023-04-01T06:04:05;46.93;;;10.33;;
52586;SDS011;38480;52.724;6.436;2023-04-01T06:06:31;53.77;;;11.67;;
52586;SDS011;38480;52.724;6.436;2023-04-01T06:09:00;73.73;;;13.50;;
52586;SDS011;38480;52.724;6.436;2023-04-01T06:24:51;51.87;;;12.90;;
52586;SDS011;38480;52.724;6.436;2023-04-01T06:27:35;63.90;;;14.30;;
52586;SDS011;38480;52.724;6.436;2023-04-01T06:38:16;110.80;;;18.27;;
52586;SDS011;38480;52.724;6.436;2023-04-01T06:40:51;105.93;;;19.53;;
52586;SDS011;38480;52.724;6.436;2023-04-01T06:43:25;138.77;;;21.27;;
52586;SDS011;38480;52.724;6.436;2023-04-01T06:45:59;115.97;;;20.17;;
52586;SDS011;38480;52.724;6.436;2023-04-01T06:56:23;278.03;;;29.47;;
52586;SDS011;38480;52.724;6.436;2023-04-01T06:58:54;97.60;;;19.47;;
52586;SDS011;38480;52.724;6.436;2023-04-01T07:01:24;94.80;;;19.33;;
52586;SDS011;38480;52.724;6.436;2023-04-01T07:06:28;153.00;;;21.53;;
52586;SDS011;38480;52.724;6.436;2023-04-01T07:08:57;116.97;;;20.53;;
52586;SDS011;38480;52.724;6.436;2023-04-01T07:11:31;152.47;;;21.57;;
52586;SDS011;38480;52.724;6.436;2023-04-01T07:14:03;99.73;;;17.80;;
52586;SDS011;38480;52.724;6.436;2023-04-01T07:16:32;74.25;;;15.65;;
52586;SDS011;38480;52.724;6.436;2023-04-01T07:19:03;74.43;;;15.80;;
52586;SDS011;38480;52.724;6.436;2023-04-01T07:21:34;69.60;;;14.80;;
52586;SDS011;38480;52.724;6.436;2023-04-01T07:24:05;85.22;;;16.52;;
52586;SDS011;38480;52.724;6.436;2023-04-01T07:26:32;64.47;;;15.53;;
52586;SDS011;38480;52.724;6.436;2023-04-01T07:28:58;52.07;;;14.10;;
52586;SDS011;38480;52.724;6.436;2023-04-01T07:31:30;79.27;;;16.90;;
52586;SDS011;38480;52.724;6.436;2023-04-01T07:34:09;37.20;;;12.20;;
52586;SDS011;38480;52.724;6.436;2023-04-01T07:39:08;56.10;;;16.07;;
52586;SDS011;38480;52.724;6.436;2023-04-01T07:44:07;104.43;;;20.43;;
52586;SDS011;38480;52.724;6.436;2023-04-01T07:47:21;54.60;;;14.67;;
52586;SDS011;38480;52.724;6.436;2023-04-01T07:52:06;78.73;;;16.63;;
52586;SDS011;38480;52.724;6.436;2023-04-01T07:54:53;78.60;;;16.77;;
52586;SDS011;38480;52.724;6.436;2023-04-01T07:57:22;55.07;;;14.53;;
52586;SDS011;38480;52.724;6.436;2023-04-01T08:00:02;67.30;;;15.70;;
52586;SDS011;38480;52.724;6.436;2023-04-01T08:02:34;53.43;;;14.77;;
52586;SDS011;38480;52.724;6.436;2023-04-01T08:05:19;41.17;;;12.27;;
52586;SDS011;38480;52.724;6.436;2023-04-01T08:15:21;40.37;;;12.03;;
52586;SDS011;38480;52.724;6.436;2023-04-01T08:17:54;37.23;;;11.33;;
52586;SDS011;38480;52.724;6.436;2023-04-01T08:20:29;56.47;;;13.93;;
52586;SDS011;38480;52.724;6.436;2023-04-01T08:23:18;55.77;;;12.73;;
52586;SDS011;38480;52.724;6.436;2023-04-01T08:26:26;43.43;;;11.97;;
52586;SDS011;38480;52.724;6.436;2023-04-01T08:28:36;36.70;;;10.57;;
52586;SDS011;38480;52.724;6.436;2023-04-01T08:31:11;24.27;;;9.83;;
52586;SDS011;38480;52.724;6.436;2023-04-01T08:33:38;17.23;;;8.07;;
52586;SDS011;38480;52.724;6.436;2023-04-01T08:36:10;32.07;;;9.57;;
52586;SDS011;38480;52.724;6.436;2023-04-01T08:38:39;14.77;;;6.57;;
52586;SDS011;38480;52.724;6.436;2023-04-01T08:41:09;46.57;;;10.57;;
52586;SDS011;38480;52.724;6.436;2023-04-01T08:43:59;61.57;;;11.63;;
52586;SDS011;38480;52.724;6.436;2023-04-01T08:49:05;61.40;;;11.20;;
52586;SDS011;38480;52.724;6.436;2023-04-01T08:52:01;29.60;;;7.13;;
52586;SDS011;38480;52.724;6.436;2023-04-01T09:07:45;20.67;;;5.53;;
52586;SDS011;38480;52.724;6.436;2023-04-01T09:22:59;14.73;;;4.67;;
52586;SDS011;38480;52.724;6.436;2023-04-01T09:28:18;11.67;;;4.10;;
52586;SDS011;38480;52.724;6.436;2023-04-01T09:41:17;7.37;;;2.80;;
52586;SDS011;38480;52.724;6.436;2023-04-01T09:43:51;6.23;;;2.47;;
52586;SDS011;38480;52.724;6.436;2023-04-01T10:12:08;15.27;;;8.03;;
52586;SDS011;38480;52.724;6.436;2023-04-01T10:17:10;13.57;;;7.63;;
52586;SDS011;38480;52.724;6.436;2023-04-01T10:22:13;10.07;;;7.40;;
52586;SDS011;38480;52.724;6.436;2023-04-01T10:35:45;14.47;;;8.60;;
52586;SDS011;38480;52.724;6.436;2023-04-01T10:48:57;9.80;;;7.40;;
52586;SDS011;38480;52.724;6.436;2023-04-01T10:54:06;10.57;;;7.80;;
52586;SDS011;38480;52.724;6.436;2023-04-01T10:56:46;10.03;;;7.40;;
52586;SDS011;38480;52.724;6.436;2023-04-01T11:04:44;14.33;;;8.40;;
52586;SDS011;38480;52.724;6.436;2023-04-01T11:15:37;16.23;;;10.70;;
52586;SDS011;38480;52.724;6.436;2023-04-01T11:21:02;14.07;;;8.43;;
52586;SDS011;38480;52.724;6.436;2023-04-01T11:28:54;12.63;;;8.07;;
52586;SDS011;38480;52.724;6.436;2023-04-01T11:33:57;11.10;;;7.63;;
52586;SDS011;38480;52.724;6.436;2023-04-01T11:36:36;8.73;;;7.17;;
52586;SDS011;38480;52.724;6.436;2023-04-01T11:44:09;14.37;;;9.50;;
52586;SDS011;38480;52.724;6.436;2023-04-01T12:02:08;15.77;;;9.27;;
52586;SDS011;38480;52.724;6.436;2023-04-01T12:04:41;20.23;;;10.30;;
52586;SDS011;38480;52.724;6.436;2023-04-01T12:07:41;13.47;;;8.67;;
52586;SDS011;38480;52.724;6.436;2023-04-01T12:10:16;11.50;;;7.93;;
52586;SDS011;38480;52.724;6.436;2023-04-01T12:12:48;14.00;;;9.23;;
52586;SDS011;38480;52.724;6.436;2023-04-01T12:17:58;13.63;;;9.17;;
52586;SDS011;38480;52.724;6.436;2023-04-01T12:23:16;11.07;;;8.03;;
52586;SDS011;38480;52.724;6.436;2023-04-01T12:36:49;10.33;;;7.33;;
52586;SDS011;38480;52.724;6.436;2023-04-01T12:46:46;11.00;;;7.13;;
52586;SDS011;38480;52.724;6.436;2023-04-01T12:49:19;11.30;;;7.50;;
52586;SDS011;38480;52.724;6.436;2023-04-01T12:54:34;16.57;;;7.53;;
52586;SDS011;38480;52.724;6.436;2023-04-01T12:57:14;10.67;;;7.27;;
52586;SDS011;38480;52.724;6.436;2023-04-01T13:02:25;14.65;;;7.10;;
52586;SDS011;38480;52.724;6.436;2023-04-01T13:10:20;11.10;;;6.70;;
52586;SDS011;38480;52.724;6.436;2023-04-01T13:15:31;10.73;;;7.27;;
52586;SDS011;38480;52.724;6.436;2023-04-01T13:21:04;9.50;;;6.70;;
52586;SDS011;38480;52.724;6.436;2023-04-01T13:26:32;8.47;;;5.60;;
52586;SDS011;38480;52.724;6.436;2023-04-01T13:31:29;7.43;;;5.50;;
52586;SDS011;38480;52.724;6.436;2023-04-01T13:34:08;7.87;;;5.57;;
52586;SDS011;38480;52.724;6.436;2023-04-01T13:36:44;8.50;;;5.80;;
52586;SDS011;38480;52.724;6.436;2023-04-01T13:39:16;8.03;;;5.37;;
52586;SDS011;38480;52.724;6.436;2023-04-01T13:47:22;7.20;;;5.20;;
52586;SDS011;38480;52.724;6.436;2023-04-01T13:55:10;8.23;;;5.63;;
52586;SDS011;38480;52.724;6.436;2023-04-01T14:06:14;9.97;;;6.23;;
52586;SDS011;38480;52.724;6.436;2023-04-01T14:11:31;6.93;;;5.37;;
52586;SDS011;38480;52.724;6.436;2023-04-01T14:14:04;6.67;;;5.40;;
52586;SDS011;38480;52.724;6.436;2023-04-01T14:16:49;6.67;;;5.53;;
52586;SDS011;38480;52.724;6.436;2023-04-01T14:21:58;8.90;;;5.83;;
52586;SDS011;38480;52.724;6.436;2023-04-01T14:24:52;8.67;;;6.03;;
52586;SDS011;38480;52.724;6.436;2023-04-01T14:30:05;9.23;;;6.43;;
52586;SDS011;38480;52.724;6.436;2023-04-01T14:32:45;9.13;;;6.73;;
52586;SDS011;38480;52.724;6.436;2023-04-01T14:40:28;6.33;;;5.10;;
52586;SDS011;38480;52.724;6.436;2023-04-01T14:45:45;7.03;;;5.10;;
52586;SDS011;38480;52.724;6.436;2023-04-01T14:50:57;9.80;;;4.93;;
52586;SDS011;38480;52.724;6.436;2023-04-01T14:53:29;6.43;;;5.03;;
52586;SDS011;38480;52.724;6.436;2023-04-01T14:55:59;6.20;;;4.67;;
52586;SDS011;38480;52.724;6.436;2023-04-01T14:58:43;6.00;;;4.80;;
52586;SDS011;38480;52.724;6.436;2023-04-01T15:06:33;8.33;;;4.97;;
52586;SDS011;38480;52.724;6.436;2023-04-01T15:09:16;6.90;;;5.20;;
52586;SDS011;38480;52.724;6.436;2023-04-01T15:11:54;6.63;;;5.23;;
52586;SDS011;38480;52.724;6.436;2023-04-01T15:17:17;9.03;;;5.53;;
52586;SDS011;38480;52.724;6.436;2023-04-01T15:20:10;8.20;;;4.83;;
52586;SDS011;38480;52.724;6.436;2023-04-01T15:22:50;7.40;;;5.17;;
52586;SDS011;38480;52.724;6.436;2023-04-01T15:28:16;7.77;;;4.97;;
52586;SDS011;38480;52.724;6.436;2023-04-01T15:35:44;8.10;;;5.37;;
52586;SDS011;38480;52.724;6.436;2023-04-01T15:46:14;5.97;;;4.43;;
52586;SDS011;38480;52.724;6.436;2023-04-01T15:48:50;5.03;;;4.37;;
52586;SDS011;38480;52.724;6.436;2023-04-01T15:51:41;5.00;;;3.93;;
52586;SDS011;38480;52.724;6.436;2023-04-01T15:54:16;5.10;;;4.60;;
52586;SDS011;38480;52.724;6.436;2023-04-01T15:59:22;5.63;;;4.87;;
52586;SDS011;38480;52.724;6.436;2023-04-01T16:12:28;5.80;;;4.73;;
52586;SDS011;38480;52.724;6.436;2023-04-01T16:23:11;6.77;;;5.37;;
52586;SDS011;38480;52.724;6.436;2023-04-01T16:25:40;5.60;;;4.03;;
52586;SDS011;38480;52.724;6.436;2023-04-01T16:28:18;4.90;;;3.93;;
52586;SDS011;38480;52.724;6.436;2023-04-01T16:33:35;6.43;;;4.20;;
52586;SDS011;38480;52.724;6.436;2023-04-01T16:38:50;4.97;;;3.77;;
52586;SDS011;38480;52.724;6.436;2023-04-01T16:41:24;3.87;;;3.43;;
52586;SDS011;38480;52.724;6.436;2023-04-01T16:43:51;4.97;;;3.70;;
52586;SDS011;38480;52.724;6.436;2023-04-01T16:51:15;7.03;;;4.63;;
52586;SDS011;38480;52.724;6.436;2023-04-01T16:53:46;5.80;;;4.50;;
52586;SDS011;38480;52.724;6.436;2023-04-01T16:56:18;5.97;;;4.37;;
52586;SDS011;38480;52.724;6.436;2023-04-01T16:59:02;8.60;;;6.75;;
52586;SDS011;38480;52.724;6.436;2023-04-01T17:01:39;6.70;;;5.33;;
52586;SDS011;38480;52.724;6.436;2023-04-01T17:04:51;5.93;;;4.60;;
52586;SDS011;38480;52.724;6.436;2023-04-01T17:22:25;6.90;;;5.80;;
52586;SDS011;38480;52.724;6.436;2023-04-01T17:27:47;7.87;;;5.90;;
52586;SDS011;38480;52.724;6.436;2023-04-01T17:30:17;8.73;;;5.90;;
52586;SDS011;38480;52.724;6.436;2023-04-01T17:40:41;9.10;;;6.65;;
52586;SDS011;38480;52.724;6.436;2023-04-01T17:43:12;9.10;;;7.10;;
52586;SDS011;38480;52.724;6.436;2023-04-01T17:45:44;15.17;;;8.83;;
52586;SDS011;38480;52.724;6.436;2023-04-01T18:08:49;13.33;;;9.10;;
52586;SDS011;38480;52.724;6.436;2023-04-01T18:22:08;10.60;;;7.77;;
52586;SDS011;38480;52.724;6.436;2023-04-01T18:24:40;10.70;;;7.87;;
52586;SDS011;38480;52.724;6.436;2023-04-01T18:29:41;11.77;;;7.17;;
52586;SDS011;38480;52.724;6.436;2023-04-01T18:37:32;12.67;;;7.53;;
52586;SDS011;38480;52.724;6.436;2023-04-01T18:42:53;13.93;;;10.13;;
52586;SDS011;38480;52.724;6.436;2023-04-01T18:48:12;10.17;;;7.63;;
52586;SDS011;38480;52.724;6.436;2023-04-01T18:50:37;14.50;;;9.80;;
52586;SDS011;38480;52.724;6.436;2023-04-01T18:53:48;16.57;;;10.23;;
52586;SDS011;38480;52.724;6.436;2023-04-01T18:55:58;16.00;;;10.00;;
52586;SDS011;38480;52.724;6.436;2023-04-01T18:58:29;16.33;;;10.10;;
52586;SDS011;38480;52.724;6.436;2023-04-01T19:03:45;19.70;;;10.37;;
52586;SDS011;38480;52.724;6.436;2023-04-01T19:06:19;14.40;;;9.97;;
52586;SDS011;38480;52.724;6.436;2023-04-01T19:08:45;16.10;;;10.67;;
52586;SDS011;38480;52.724;6.436;2023-04-01T19:11:15;14.67;;;9.47;;
52586;SDS011;38480;52.724;6.436;2023-04-01T19:14:04;14.93;;;10.17;;
52586;SDS011;38480;52.724;6.436;2023-04-01T19:21:45;16.23;;;10.50;;
52586;SDS011;38480;52.724;6.436;2023-04-01T19:34:37;24.40;;;16.77;;
52586;SDS011;38480;52.724;6.436;2023-04-01T19:37:09;26.37;;;18.27;;
52586;SDS011;38480;52.724;6.436;2023-04-01T19:40:00;17.07;;;11.07;;
52586;SDS011;38480;52.724;6.436;2023-04-01T19:45:03;22.37;;;12.60;;
52586;SDS011;38480;52.724;6.436;2023-04-01T19:52:48;21.23;;;13.90;;
52586;SDS011;38480;52.724;6.436;2023-04-01T20:00:25;21.37;;;12.40;;
52586;SDS011;38480;52.724;6.436;2023-04-01T20:03:00;21.13;;;12.13;;
52586;SDS011;38480;52.724;6.436;2023-04-01T20:05:35;22.77;;;13.27;;
52586;SDS011;38480;52.724;6.436;2023-04-01T20:08:07;23.37;;;13.47;;
52586;SDS011;38480;52.724;6.436;2023-04-01T20:10:48;22.23;;;13.05;;
52586;SDS011;38480;52.724;6.436;2023-04-01T20:13:35;26.77;;;13.73;;
52586;SDS011;38480;52.724;6.436;2023-04-01T20:16:06;20.17;;;12.83;;
52586;SDS011;38480;52.724;6.436;2023-04-01T20:18:47;21.97;;;13.33;;
52586;SDS011;38480;52.724;6.436;2023-04-01T20:21:24;20.10;;;12.43;;
52586;SDS011;38480;52.724;6.436;2023-04-01T20:23:54;21.07;;;13.20;;
52586;SDS011;38480;52.724;6.436;2023-04-01T20:26:23;23.33;;;12.83;;
52586;SDS011;38480;52.724;6.436;2023-04-01T20:29:04;25.20;;;13.43;;
52586;SDS011;38480;52.724;6.436;2023-04-01T20:31:42;28.20;;;13.97;;
52586;SDS011;38480;52.724;6.436;2023-04-01T20:42:12;21.90;;;14.07;;
52586;SDS011;38480;52.724;6.436;2023-04-01T20:49:49;26.57;;;13.10;;
52586;SDS011;38480;52.724;6.436;2023-04-01T20:52:27;25.43;;;14.00;;
52586;SDS011;38480;52.724;6.436;2023-04-01T20:57:34;28.60;;;14.27;;
52586;SDS011;38480;52.724;6.436;2023-04-01T21:05:30;22.57;;;13.37;;
52586;SDS011;38480;52.724;6.436;2023-04-01T21:10:33;27.00;;;13.57;;
52586;SDS011;38480;52.724;6.436;2023-04-01T21:31:44;22.13;;;11.90;;
52586;SDS011;38480;52.724;6.436;2023-04-01T21:42:02;21.23;;;11.87;;
52586;SDS011;38480;52.724;6.436;2023-04-01T21:47:24;23.13;;;11.77;;
52586;SDS011;38480;52.724;6.436;2023-04-01T21:50:14;26.17;;;12.60;;
52586;SDS011;38480;52.724;6.436;2023-04-01T21:52:55;25.37;;;12.60;;
52586;SDS011;38480;52.724;6.436;2023-04-01T22:00:38;27.10;;;12.30;;
52586;SDS011;38480;52.724;6.436;2023-04-01T22:05:38;22.87;;;11.70;;
52586;SDS011;38480;52.724;6.436;2023-04-01T22:10:51;20.07;;;12.23;;
52586;SDS011;38480;52.724;6.436;2023-04-01T22:13:26;23.27;;;11.40;;
52586;SDS011;38480;52.724;6.436;2023-04-01T22:16:00;21.30;;;12.23;;
52586;SDS011;38480;52.724;6.436;2023-04-01T22:18:34;17.93;;;11.53;;
52586;SDS011;38480;52.724;6.436;2023-04-01T22:21:10;23.77;;;13.57;;
52586;SDS011;38480;52.724;6.436;2023-04-01T22:28:45;23.33;;;11.77;;
52586;SDS011;38480;52.724;6.436;2023-04-01T22:31:15;23.53;;;11.20;;
52586;SDS011;38480;52.724;6.436;2023-04-01T22:36:27;24.43;;;12.10;;
52586;SDS011;38480;52.724;6.436;2023-04-01T22:44:03;21.77;;;11.53;;
52586;SDS011;38480;52.724;6.436;2023-04-01T22:56:37;18.23;;;10.60;;
52586;SDS011;38480;52.724;6.436;2023-04-01T22:59:15;17.63;;;9.83;;
52586;SDS011;38480;52.724;6.436;2023-04-01T23:01:45;20.50;;;10.50;;
52586;SDS011;38480;52.724;6.436;2023-04-01T23:04:14;19.43;;;10.80;;
52586;SDS011;38480;52.724;6.436;2023-04-01T23:06:44;17.20;;;9.00;;
52586;SDS011;38480;52.724;6.436;2023-04-01T23:16:43;20.67;;;9.63;;
52586;SDS011;38480;52.724;6.436;2023-04-01T23:19:13;15.07;;;9.63;;
52586;SDS011;38480;52.724;6.436;2023-04-01T23:21:49;22.50;;;10.87;;
52586;SDS011;38480;52.724;6.436;2023-04-01T23:27:02;18.50;;;10.53;;
52586;SDS011;38480;52.724;6.436;2023-04-01T23:29:30;18.93;;;8.67;;
52586;SDS011;38480;52.724;6.436;2023-04-01T23:31:59;19.67;;;9.57;;
52586;SDS011;38480;52.724;6.436;2023-04-01T23:34:32;17.87;;;9.17;;
52586;SDS011;38480;52.724;6.436;2023-04-01T23:37:08;15.50;;;9.10;;
52586;SDS011;38480;52.724;6.436;2023-04-01T23:39:39;17.97;;;8.77;;
52586;SDS011;38480;52.724;6.436;2023-04-01T23:42:07;18.07;;;8.87;;
52586;SDS011;38480;52.724;6.436;2023-04-01T23:44:38;18.37;;;9.00;;
52586;SDS011;38480;52.724;6.436;2023-04-01T23:47:04;20.17;;;8.70;;
52586;SDS011;38480;52.724;6.436;2023-04-01T23:49:35;19.50;;;9.53;;
52586;SDS011;38480;52.724;6.436;2023-04-01T23:52:04;14.60;;;8.97;;
52586;SDS011;38480;52.724;6.436;2023-04-01T23:54:43;15.37;;;8.43;;
52586;SDS011;38480;52.724;6.436;2023-04-01T23:57:11;14.73;;;9.13;;
52586;SDS011;38480;52.724;6.436;2023-04-01T23:59:37;16.73;;;8.47;;
